createdAt,value
2019-02-04T00:00:30.265Z,0.33
2019-02-04T00:03:03.816Z,0.39
2019-02-04T00:05:36.911Z,0.32
2019-02-04T00:08:08.619Z,0.27
2019-02-04T00:10:40.119Z,0.37
2019-02-04T00:13:17.399Z,0.20
2019-02-04T00:15:49.048Z,0.34
2019-02-04T00:18:21.859Z,0.18
2019-02-04T00:20:53.310Z,0.37
2019-02-04T00:23:25.021Z,0.40
2019-02-04T00:26:04.167Z,0.20
2019-02-04T00:28:35.604Z,0.31
2019-02-04T00:31:07.289Z,0.41
2019-02-04T00:33:39.101Z,0.29
2019-02-04T00:36:10.546Z,0.42
2019-02-04T00:38:41.995Z,0.46
2019-02-04T00:41:13.459Z,0.41
2019-02-04T00:43:44.918Z,0.22
2019-02-04T00:46:16.675Z,0.21
2019-02-04T00:48:48.093Z,0.34
2019-02-04T00:51:21.603Z,0.41
2019-02-04T00:53:52.703Z,0.30
2019-02-04T00:56:24.160Z,0.30
2019-02-04T00:58:56.008Z,0.21
2019-02-04T01:01:29.111Z,0.32
2019-02-04T01:04:05.532Z,0.29
2019-02-04T01:06:37.003Z,0.30
2019-02-04T01:09:10.769Z,0.25
2019-02-04T01:11:42.311Z,0.28
2019-02-04T01:14:13.757Z,0.40
2019-02-04T01:16:45.229Z,0.21
2019-02-04T01:19:16.669Z,0.16
2019-02-04T01:21:48.429Z,0.09
2019-02-04T01:24:20.199Z,0.11
2019-02-04T01:26:51.666Z,0.18
2019-02-04T01:29:23.345Z,0.08
2019-02-04T01:31:54.797Z,0.17
2019-02-04T01:34:26.155Z,0.22
2019-02-04T01:36:57.537Z,0.21
2019-02-04T01:39:30.450Z,0.27
2019-02-04T01:42:01.921Z,0.16
2019-02-04T01:44:33.357Z,0.10
2019-02-04T01:47:14.399Z,0.11
2019-02-04T01:49:37.925Z,0.08
2019-02-04T01:52:09.407Z,0.00
2019-02-04T01:54:40.853Z,0.03
2019-02-04T01:57:12.605Z,0.06
2019-02-04T01:59:46.092Z,-0.01
2019-02-04T02:02:17.219Z,-0.21
2019-02-04T02:04:48.655Z,-0.23
2019-02-04T02:07:20.131Z,-0.23
2019-02-04T02:09:52.152Z,-0.06
2019-02-04T02:12:23.616Z,-0.07
2019-02-04T02:14:56.731Z,-0.18
2019-02-04T02:17:28.217Z,-0.13
2019-02-04T02:19:59.661Z,-0.17
2019-02-04T02:22:31.147Z,-0.26
2019-02-04T02:25:02.551Z,-0.26
2019-02-04T02:27:34.035Z,-0.16
2019-02-04T02:30:07.005Z,-0.12
2019-02-04T02:32:38.482Z,-0.06
2019-02-04T02:35:11.821Z,-0.15
2019-02-04T02:37:43.302Z,-0.08
2019-02-04T02:40:23.039Z,0.04
2019-02-04T02:42:54.522Z,-0.10
2019-02-04T02:45:26.137Z,-0.07
2019-02-04T02:47:57.601Z,-0.03
2019-02-04T02:50:29.041Z,0.13
2019-02-04T02:53:02.295Z,0.21
2019-02-04T02:55:33.727Z,0.15
2019-02-04T02:58:05.311Z,0.12
2019-02-04T03:00:36.747Z,0.15
2019-02-04T03:03:08.825Z,0.12
2019-02-04T03:05:41.015Z,0.06
2019-02-04T03:08:12.486Z,0.09
2019-02-04T03:10:43.897Z,0.07
2019-02-04T03:13:17.345Z,0.06
2019-02-04T03:15:48.823Z,0.15
2019-02-04T03:18:20.798Z,0.20
2019-02-04T03:20:54.928Z,0.26
2019-02-04T03:23:26.393Z,0.26
2019-02-04T03:26:00.597Z,0.13
2019-02-04T03:28:32.243Z,0.21
2019-02-04T03:31:04.149Z,0.25
2019-02-04T03:33:35.600Z,0.17
2019-02-04T03:36:07.036Z,0.17
2019-02-04T03:38:38.481Z,0.11
2019-02-04T03:41:09.994Z,0.16
2019-02-04T03:43:41.430Z,0.11
2019-02-04T03:46:12.856Z,0.08
2019-02-04T03:48:44.300Z,0.13
2019-02-04T03:51:15.708Z,0.13
2019-02-04T03:53:51.630Z,0.12
2019-02-04T03:56:23.157Z,0.22
2019-02-04T03:58:54.640Z,0.12
2019-02-04T04:01:26.276Z,0.13
2019-02-04T04:03:58.240Z,0.04
2019-02-04T04:06:29.616Z,0.12
2019-02-04T04:09:01.212Z,0.16
2019-02-04T04:11:34.385Z,0.25
2019-02-04T04:14:05.951Z,0.28
2019-02-04T04:16:37.316Z,0.07
2019-02-04T04:19:10.499Z,0.13
2019-02-04T04:21:42.061Z,0.16
2019-02-04T04:24:13.502Z,0.17
2019-02-04T04:26:46.394Z,0.12
2019-02-04T04:29:17.892Z,0.22
2019-02-04T04:31:49.636Z,0.27
2019-02-04T04:34:23.874Z,0.22
2019-02-04T04:36:56.570Z,0.34
2019-02-04T04:39:28.011Z,0.17
2019-02-04T04:42:01.087Z,0.17
2019-02-04T04:44:32.776Z,0.35
2019-02-04T04:47:04.230Z,0.25
2019-02-04T04:49:38.408Z,0.38
2019-02-04T04:52:09.838Z,0.34
2019-02-04T04:54:41.570Z,0.28
2019-02-04T04:57:13.035Z,0.33
2019-02-04T04:59:46.762Z,0.35
2019-02-04T05:02:17.903Z,0.28
2019-02-04T05:04:49.339Z,0.20
2019-02-04T05:07:20.996Z,0.18
2019-02-04T05:09:52.447Z,0.22
2019-02-04T05:12:23.891Z,0.26
2019-02-04T05:14:55.352Z,0.27
2019-02-04T05:17:26.774Z,0.21
2019-02-04T05:19:58.615Z,0.17
2019-02-04T05:22:30.032Z,0.26
2019-02-04T05:25:01.496Z,0.28
2019-02-04T05:27:32.994Z,0.31
2019-02-04T05:30:07.706Z,0.28
2019-02-04T05:32:39.148Z,0.32
2019-02-04T05:35:10.828Z,0.28
2019-02-04T05:37:42.246Z,0.28
2019-02-04T05:40:15.830Z,0.25
2019-02-04T05:42:50.930Z,0.35
2019-02-04T05:45:22.532Z,0.40
2019-02-04T05:47:53.949Z,0.34
2019-02-04T05:50:25.412Z,0.18
2019-02-04T05:52:56.840Z,0.33
2019-02-04T05:55:30.489Z,0.45
2019-02-04T05:58:01.711Z,0.26
2019-02-04T06:00:42.398Z,0.22
2019-02-04T06:03:13.815Z,0.22
2019-02-04T06:05:45.560Z,0.28
2019-02-04T06:08:17.023Z,0.15
2019-02-04T06:10:48.487Z,0.20
2019-02-04T06:13:20.000Z,0.19
2019-02-04T06:15:51.458Z,0.31
2019-02-04T06:18:23.185Z,0.27
2019-02-04T06:20:54.711Z,0.28
2019-02-04T06:23:26.587Z,0.33
2019-02-04T06:25:58.013Z,0.39
2019-02-04T06:28:29.446Z,0.39
2019-02-04T06:31:00.952Z,0.52
2019-02-04T06:33:32.455Z,0.43
2019-02-04T06:36:04.003Z,0.52
2019-02-04T06:38:35.510Z,0.44
2019-02-04T06:41:07.024Z,0.47
2019-02-04T06:43:38.487Z,0.44
2019-02-04T06:46:10.984Z,0.45
2019-02-04T06:48:43.888Z,0.30
2019-02-04T06:51:15.839Z,0.39
2019-02-04T06:53:47.206Z,0.44
2019-02-04T06:56:18.707Z,0.50
2019-02-04T06:58:50.149Z,0.44
2019-02-04T07:01:24.337Z,0.46
2019-02-04T07:03:55.797Z,0.42
2019-02-04T07:06:27.831Z,0.36
2019-02-04T07:08:59.353Z,0.38
2019-02-04T07:11:30.833Z,0.35
2019-02-04T07:14:02.270Z,0.37
2019-02-04T07:16:33.855Z,0.43
2019-02-04T07:19:05.678Z,0.52
2019-02-04T07:21:37.108Z,0.56
2019-02-04T07:24:08.662Z,0.59
2019-02-04T07:26:42.007Z,0.35
2019-02-04T07:29:13.438Z,0.47
2019-02-04T07:31:45.267Z,0.52
2019-02-04T07:34:16.720Z,0.51
2019-02-04T07:36:48.668Z,0.47
2019-02-04T07:39:20.084Z,0.53
2019-02-04T07:41:51.652Z,0.64
2019-02-04T07:44:24.387Z,0.58
2019-02-04T07:46:55.827Z,0.66
2019-02-04T07:49:35.043Z,0.68
2019-02-04T07:52:01.401Z,0.78
2019-02-04T07:54:32.837Z,0.63
2019-02-04T07:57:04.577Z,0.13
2019-02-04T07:59:36.070Z,0.32
2019-02-04T08:02:07.508Z,0.35
2019-02-04T08:04:38.953Z,0.14
2019-02-04T08:07:10.484Z,0.27
2019-02-04T08:09:41.993Z,0.32
2019-02-04T08:12:13.485Z,0.08
2019-02-04T08:14:45.403Z,-0.04
2019-02-04T08:17:17.035Z,0.40
2019-02-04T08:19:51.527Z,0.48
2019-02-04T08:22:22.981Z,0.53
2019-02-04T08:24:56.067Z,0.82
2019-02-04T08:27:27.565Z,0.91
2019-02-04T08:29:59.085Z,0.85
2019-02-04T08:32:30.439Z,0.83
2019-02-04T08:35:01.934Z,1.00
2019-02-04T08:37:34.987Z,1.05
2019-02-04T08:40:07.508Z,0.86
2019-02-04T08:42:40.464Z,1.08
2019-02-04T08:45:12.461Z,1.30
2019-02-04T08:47:44.208Z,1.27
2019-02-04T08:50:18.283Z,1.34
2019-02-04T08:52:52.571Z,1.38
2019-02-04T08:55:24.019Z,1.36
2019-02-04T08:57:56.725Z,1.46
2019-02-04T09:00:30.035Z,1.45
2019-02-04T09:03:01.582Z,1.36
2019-02-04T09:05:33.947Z,1.07
2019-02-04T09:08:05.555Z,1.23
2019-02-04T09:10:37.475Z,1.45
2019-02-04T09:13:08.906Z,1.48
2019-02-04T09:15:40.446Z,1.54
2019-02-04T09:18:16.276Z,1.57
2019-02-04T09:20:49.845Z,1.50
2019-02-04T09:23:24.133Z,1.60
2019-02-04T09:25:55.592Z,1.51
2019-02-04T09:28:29.833Z,1.50
2019-02-04T09:31:00.453Z,1.44
2019-02-04T09:33:32.008Z,1.72
2019-02-04T09:36:03.448Z,1.51
2019-02-04T09:38:37.668Z,1.79
2019-02-04T09:41:09.135Z,1.85
2019-02-04T09:43:40.631Z,2.07
2019-02-04T09:46:12.140Z,2.14
2019-02-04T09:48:45.206Z,2.24
2019-02-04T09:51:16.635Z,1.77
2019-02-04T09:53:49.323Z,1.72
2019-02-04T09:56:20.735Z,2.15
2019-02-04T09:58:52.207Z,1.82
2019-02-04T10:01:23.867Z,2.19
2019-02-04T10:03:58.107Z,2.47
2019-02-04T10:06:31.545Z,2.52
2019-02-04T10:09:02.678Z,2.25
2019-02-04T10:11:35.741Z,2.01
2019-02-04T10:14:07.281Z,2.54
2019-02-04T10:16:38.755Z,2.10
2019-02-04T10:19:10.239Z,1.77
2019-02-04T10:21:41.732Z,2.04
2019-02-04T10:24:13.413Z,1.87
2019-02-04T10:26:44.928Z,2.37
2019-02-04T10:29:16.438Z,1.84
2019-02-04T10:31:48.050Z,2.53
2019-02-04T10:34:19.558Z,2.73
2019-02-04T10:36:53.381Z,2.52
2019-02-04T10:39:24.891Z,2.60
2019-02-04T10:41:56.266Z,2.66
2019-02-04T10:44:27.681Z,2.55
2019-02-04T10:47:01.241Z,2.52
2019-02-04T10:49:32.819Z,2.46
2019-02-04T10:52:04.283Z,2.28
2019-02-04T10:54:35.866Z,2.25
2019-02-04T10:57:09.470Z,2.50
2019-02-04T10:59:41.262Z,2.72
2019-02-04T11:02:12.723Z,2.85
2019-02-04T11:04:44.194Z,2.65
2019-02-04T11:07:17.280Z,2.71
2019-02-04T11:09:48.819Z,2.65
2019-02-04T11:12:20.795Z,2.55
2019-02-04T11:14:52.425Z,3.09
2019-02-04T11:17:23.887Z,2.71
2019-02-04T11:19:55.366Z,2.93
2019-02-04T11:22:26.804Z,2.81
2019-02-04T11:24:58.517Z,2.68
2019-02-04T11:27:29.987Z,2.54
2019-02-04T11:30:01.664Z,2.97
2019-02-04T11:32:35.781Z,2.84
2019-02-04T11:35:07.620Z,2.97
2019-02-04T11:37:39.066Z,2.64
2019-02-04T11:40:11.918Z,2.61
2019-02-04T11:42:43.569Z,2.40
2019-02-04T11:45:15.508Z,2.62
2019-02-04T11:47:47.742Z,2.52
2019-02-04T11:50:19.302Z,2.59
2019-02-04T11:52:50.715Z,2.46
2019-02-04T11:55:22.360Z,2.24
2019-02-04T11:57:53.848Z,2.29
2019-02-04T12:00:29.586Z,2.00
2019-02-04T12:03:01.854Z,1.83
2019-02-04T12:05:36.399Z,2.23
2019-02-04T12:08:08.264Z,2.13
2019-02-04T12:10:47.684Z,2.25
2019-02-04T12:13:19.722Z,2.58
2019-02-04T12:15:54.250Z,2.55
2019-02-04T12:18:25.666Z,2.63
2019-02-04T12:20:57.309Z,2.49
2019-02-04T12:23:30.325Z,2.49
2019-02-04T12:26:01.785Z,2.43
2019-02-04T12:28:33.291Z,2.58
2019-02-04T12:31:09.200Z,2.25
2019-02-04T12:33:40.431Z,2.65
2019-02-04T12:36:12.192Z,2.54
2019-02-04T12:38:43.614Z,2.37
2019-02-04T12:41:15.217Z,2.54
2019-02-04T12:43:46.653Z,2.47
2019-02-04T12:46:18.224Z,2.54
2019-02-04T12:48:49.700Z,3.03
2019-02-04T12:51:33.418Z,3.16
2019-02-04T12:53:56.678Z,3.31
2019-02-04T12:56:28.240Z,3.09
2019-02-04T12:59:00.012Z,2.73
2019-02-04T13:01:31.519Z,2.69
2019-02-04T13:04:03.178Z,2.73
2019-02-04T13:06:34.847Z,2.34
2019-02-04T13:09:10.251Z,2.40
2019-02-04T13:11:41.750Z,2.13
2019-02-04T13:14:13.158Z,1.86
2019-02-04T13:16:44.627Z,1.88
2019-02-04T13:19:16.048Z,1.95
2019-02-04T13:21:47.504Z,2.01
2019-02-04T13:24:19.050Z,2.22
2019-02-04T13:26:50.514Z,2.17
2019-02-04T13:29:23.770Z,2.39
2019-02-04T13:31:55.232Z,2.45
2019-02-04T13:34:26.694Z,2.52
2019-02-04T13:36:58.153Z,2.36
2019-02-04T13:39:29.607Z,2.26
2019-02-04T13:42:01.099Z,2.48
2019-02-04T13:44:32.566Z,2.73
2019-02-04T13:47:07.265Z,2.66
2019-02-04T13:49:38.758Z,3.10
2019-02-04T13:52:15.250Z,2.47
2019-02-04T13:54:46.280Z,2.43
2019-02-04T13:57:18.127Z,2.47
2019-02-04T13:59:49.544Z,2.72
2019-02-04T14:02:21.015Z,2.90
2019-02-04T14:04:53.508Z,2.43
2019-02-04T14:07:25.002Z,2.58
2019-02-04T14:09:59.094Z,2.47
2019-02-04T14:12:29.754Z,2.64
2019-02-04T14:15:01.351Z,2.41
2019-02-04T14:17:33.916Z,2.50
2019-02-04T14:20:11.934Z,2.34
2019-02-04T14:22:43.581Z,2.16
2019-02-04T14:25:15.325Z,2.08
2019-02-04T14:27:46.981Z,2.31
2019-02-04T14:30:25.761Z,2.70
2019-02-04T14:32:57.322Z,2.27
2019-02-04T14:35:30.239Z,2.42
2019-02-04T14:38:01.996Z,2.16
2019-02-04T14:40:33.357Z,1.68
2019-02-04T14:43:35.147Z,1.92
2019-02-04T14:47:03.074Z,1.41
2019-02-04T14:50:23.768Z,1.63
2019-02-04T14:53:55.634Z,1.74
2019-02-04T14:57:27.880Z,1.65
2019-02-04T15:00:45.539Z,1.41
2019-02-04T15:04:17.931Z,1.44
2019-02-04T15:07:49.367Z,1.56
2019-02-04T15:11:09.419Z,1.34
2019-02-04T15:14:46.772Z,1.27
2019-02-04T15:18:02.107Z,1.79
2019-02-04T15:21:43.272Z,1.41
2019-02-04T15:25:20.800Z,1.49
2019-02-04T15:28:44.210Z,1.68
2019-02-04T15:32:29.570Z,1.10
2019-02-04T15:35:52.863Z,0.83
2019-02-04T15:39:05.636Z,0.85
2019-02-04T15:42:31.894Z,0.85
2019-02-04T15:45:57.895Z,1.13
2019-02-04T15:49:07.737Z,0.89
2019-02-04T15:51:56.382Z,1.04
2019-02-04T15:54:28.372Z,1.11
2019-02-04T15:56:59.759Z,0.76
2019-02-04T15:59:31.234Z,1.01
2019-02-04T16:02:05.213Z,0.91
2019-02-04T16:04:37.489Z,0.81
2019-02-04T16:07:13.274Z,1.02
2019-02-04T16:09:44.718Z,1.17
2019-02-04T16:12:18.351Z,0.89
2019-02-04T16:14:49.767Z,0.75
2019-02-04T16:17:21.333Z,0.70
2019-02-04T16:19:54.844Z,0.56
2019-02-04T16:22:26.316Z,0.70
2019-02-04T16:24:58.034Z,0.45
2019-02-04T16:27:29.474Z,0.53
2019-02-04T16:30:00.951Z,0.36
2019-02-04T16:32:34.036Z,0.70
2019-02-04T16:35:06.973Z,0.84
2019-02-04T16:37:38.481Z,0.77
2019-02-04T16:40:12.417Z,0.66
2019-02-04T16:42:43.982Z,0.88
2019-02-04T16:45:16.588Z,0.94
2019-02-04T16:47:49.699Z,0.67
2019-02-04T16:50:24.789Z,0.58
2019-02-04T16:52:56.287Z,0.66
2019-02-04T16:55:27.807Z,0.67
2019-02-04T16:57:59.322Z,0.93
2019-02-04T17:00:32.384Z,0.62
2019-02-04T17:03:03.888Z,0.48
2019-02-04T17:05:35.949Z,0.43
2019-02-04T17:08:09.984Z,0.45
2019-02-04T17:10:41.572Z,0.45
2019-02-04T17:13:15.256Z,0.31
2019-02-04T17:15:46.787Z,0.28
2019-02-04T17:18:20.395Z,0.49
2019-02-04T17:20:51.980Z,0.23
2019-02-04T17:23:23.560Z,0.09
2019-02-04T17:25:55.064Z,0.48
2019-02-04T17:28:27.942Z,0.29
2019-02-04T17:30:59.386Z,0.33
2019-02-04T17:33:30.994Z,0.12
2019-02-04T17:36:02.503Z,0.03
2019-02-04T17:38:37.387Z,0.22
2019-02-04T17:41:08.008Z,-0.14
2019-02-04T17:43:39.562Z,-0.03
2019-02-04T17:46:14.025Z,-0.06
2019-02-04T17:48:49.170Z,0.03
2019-02-04T17:51:20.784Z,0.11
2019-02-04T17:53:52.244Z,-0.16
2019-02-04T17:56:28.283Z,-0.37
2019-02-04T17:59:02.049Z,-0.08
2019-02-04T18:01:33.688Z,-0.07
2019-02-04T18:04:05.439Z,0.11
2019-02-04T18:06:36.907Z,0.02
2019-02-04T18:09:10.898Z,-0.01
2019-02-04T18:11:42.632Z,-0.06
2019-02-04T18:14:15.178Z,-0.01
2019-02-04T18:16:46.632Z,0.10
2019-02-04T18:19:18.108Z,0.12
2019-02-04T18:21:49.540Z,0.13
2019-02-04T18:24:21.603Z,0.33
2019-02-04T18:26:53.042Z,0.30
2019-02-04T18:29:24.493Z,0.09
2019-02-04T18:31:57.013Z,0.03
2019-02-04T18:34:28.550Z,0.00
2019-02-04T18:37:00.055Z,0.25
2019-02-04T18:39:31.495Z,-0.02
2019-02-04T18:42:03.047Z,-0.09
2019-02-04T18:44:34.821Z,0.13
2019-02-04T18:47:06.316Z,0.03
2019-02-04T18:49:37.836Z,-0.04
2019-02-04T18:52:09.340Z,-0.05
2019-02-04T18:54:41.207Z,-0.07
2019-02-04T18:57:13.844Z,-0.12
2019-02-04T18:59:45.349Z,-0.15
2019-02-04T19:02:16.821Z,-0.22
2019-02-04T19:04:48.393Z,-0.28
2019-02-04T19:07:19.848Z,-0.37
2019-02-04T19:09:51.345Z,-0.37
2019-02-04T19:12:22.770Z,-0.32
2019-02-04T19:14:54.767Z,-0.28
2019-02-04T19:17:26.313Z,-0.32
2019-02-04T19:20:03.730Z,-0.87
2019-02-04T19:22:35.633Z,-0.57
2019-02-04T19:25:09.844Z,-0.49
2019-02-04T19:27:44.768Z,-0.39
2019-02-04T19:30:29.533Z,-0.23
2019-02-04T19:33:01.291Z,-0.15
2019-02-04T19:35:35.577Z,-0.25
2019-02-04T19:38:07.154Z,-0.48
2019-02-04T19:40:38.634Z,-0.41
2019-02-04T19:43:10.084Z,-0.46
2019-02-04T19:45:41.602Z,-0.39
2019-02-04T19:48:14.811Z,-0.79
2019-02-04T19:50:46.404Z,-0.99
2019-02-04T19:53:18.181Z,-1.10
2019-02-04T19:55:52.657Z,-0.56
2019-02-04T19:58:24.137Z,-0.37
2019-02-04T20:00:58.440Z,-0.10
2019-02-04T20:03:29.933Z,-0.13
2019-02-04T20:06:01.541Z,-0.45
2019-02-04T20:08:33.866Z,-0.47
2019-02-04T20:11:07.758Z,-0.14
2019-02-04T20:13:40.569Z,-0.01
2019-02-04T20:16:14.884Z,0.04
2019-02-04T20:18:46.335Z,-0.27
2019-02-04T20:21:17.843Z,-0.19
2019-02-04T20:23:49.580Z,-0.29
2019-02-04T20:26:26.613Z,-0.21
2019-02-04T20:28:54.709Z,-0.24
2019-02-04T20:31:26.172Z,-0.26
2019-02-04T20:33:57.809Z,-0.10
2019-02-04T20:36:29.454Z,-0.48
2019-02-04T20:39:04.988Z,-0.44
2019-02-04T20:41:37.652Z,-0.13
2019-02-04T20:44:09.115Z,-0.26
2019-02-04T20:46:40.673Z,-0.22
2019-02-04T20:49:13.784Z,-0.34
2019-02-04T20:51:45.253Z,-0.60
2019-02-04T20:54:19.830Z,-0.55
2019-02-04T20:56:50.128Z,-0.51
2019-02-04T20:59:22.130Z,-0.37
2019-02-04T21:01:53.670Z,-0.06
2019-02-04T21:04:25.120Z,-0.18
2019-02-04T21:06:57.674Z,-0.35
2019-02-04T21:09:29.758Z,-0.61
2019-02-04T21:12:01.300Z,-0.42
2019-02-04T21:14:33.829Z,-0.24
2019-02-04T21:17:05.302Z,-0.28
2019-02-04T21:19:36.769Z,-0.40
2019-02-04T21:22:08.524Z,-0.34
2019-02-04T21:24:41.019Z,-0.64
2019-02-04T21:27:12.466Z,-0.75
2019-02-04T21:29:44.252Z,-0.42
2019-02-04T21:32:17.309Z,-0.16
2019-02-04T21:34:49.321Z,-0.06
2019-02-04T21:37:20.796Z,-0.20
2019-02-04T21:39:52.294Z,-0.12
2019-02-04T21:42:23.807Z,0.08
2019-02-04T21:44:55.286Z,-0.23
2019-02-04T21:47:27.061Z,0.00
2019-02-04T21:50:00.087Z,0.13
2019-02-04T21:52:31.907Z,0.13
2019-02-04T21:55:11.056Z,0.07
2019-02-04T21:57:38.418Z,0.08
2019-02-04T22:00:14.963Z,-0.30
2019-02-04T22:02:47.295Z,-0.27
2019-02-04T22:05:20.052Z,-0.34
2019-02-04T22:07:51.557Z,-0.06
2019-02-04T22:10:25.034Z,-0.12
2019-02-04T22:12:56.485Z,-0.81
2019-02-04T22:15:28.026Z,-0.16
2019-02-04T22:17:59.574Z,-0.39
2019-02-04T22:20:31.070Z,-0.42
2019-02-04T22:23:02.516Z,-0.63
2019-02-04T22:25:34.074Z,-0.55
2019-02-04T22:28:05.716Z,-0.47
2019-02-04T22:30:37.151Z,-0.61
2019-02-04T22:33:08.659Z,-0.74
2019-02-04T22:35:40.141Z,-0.19
2019-02-04T22:38:11.822Z,-0.19
2019-02-04T22:40:43.219Z,-0.09
2019-02-04T22:43:14.721Z,-0.15
2019-02-04T22:45:46.275Z,-0.04
2019-02-04T22:48:17.723Z,0.14
2019-02-04T22:50:49.142Z,-0.13
2019-02-04T22:53:20.583Z,0.03
2019-02-04T22:55:52.038Z,0.03
2019-02-04T22:58:23.489Z,-0.05
2019-02-04T23:01:36.053Z,-0.19
2019-02-04T23:04:10.314Z,0.10
2019-02-04T23:06:43.874Z,-0.72
2019-02-04T23:09:15.307Z,-0.63
2019-02-04T23:11:47.279Z,-0.37
2019-02-04T23:14:18.673Z,-0.89
2019-02-04T23:16:50.180Z,-0.44
2019-02-04T23:19:21.906Z,-0.35
2019-02-04T23:21:53.337Z,-0.30
2019-02-04T23:24:24.769Z,-0.05
2019-02-04T23:26:56.268Z,-0.15
2019-02-04T23:29:27.729Z,-0.21
2019-02-04T23:31:59.752Z,-0.18
2019-02-04T23:34:31.201Z,-0.20
2019-02-04T23:37:05.545Z,-0.37
2019-02-04T23:39:38.765Z,-0.16
2019-02-04T23:42:10.509Z,-0.29
2019-02-04T23:44:41.933Z,-0.14
2019-02-04T23:47:15.021Z,-0.37
2019-02-04T23:49:46.487Z,-0.42
2019-02-04T23:52:17.934Z,-0.31
2019-02-04T23:54:51.031Z,-0.52
2019-02-04T23:57:23.689Z,-0.26
2019-02-04T23:59:55.059Z,-0.32
